sensor_id;sensor_type;location;lat;lon;timestamp;P1;durP1;ratioP1;P2;durP2;ratioP2
28653;SDS011;24320;56.980;24.336;2023-05-15T00:00:23;12.32;;;7.78;;
28653;SDS011;24320;56.980;24.336;2023-05-15T00:02:50;14.38;;;8.15;;
28653;SDS011;24320;56.980;24.336;2023-05-15T00:05:17;15.77;;;8.32;;
28653;SDS011;24320;56.980;24.336;2023-05-15T00:07:44;17.88;;;9.13;;
28653;SDS011;24320;56.980;24.336;2023-05-15T00:10:11;15.32;;;8.70;;
28653;SDS011;24320;56.980;24.336;2023-05-15T00:12:38;11.70;;;7.88;;
28653;SDS011;24320;56.980;24.336;2023-05-15T00:15:05;16.45;;;9.00;;
28653;SDS011;24320;56.980;24.336;2023-05-15T00:17:32;14.80;;;8.38;;
28653;SDS011;24320;56.980;24.336;2023-05-15T00:19:59;17.88;;;8.65;;
28653;SDS011;24320;56.980;24.336;2023-05-15T00:22:26;14.75;;;9.15;;
28653;SDS011;24320;56.980;24.336;2023-05-15T00:24:53;14.98;;;8.75;;
28653;SDS011;24320;56.980;24.336;2023-05-15T00:29:53;17.13;;;9.30;;
28653;SDS011;24320;56.980;24.336;2023-05-15T00:32:20;16.60;;;8.68;;
28653;SDS011;24320;56.980;24.336;2023-05-15T00:34:47;20.55;;;8.73;;
28653;SDS011;24320;56.980;24.336;2023-05-15T00:37:14;16.63;;;9.00;;
28653;SDS011;24320;56.980;24.336;2023-05-15T00:39:41;20.17;;;9.35;;
28653;SDS011;24320;56.980;24.336;2023-05-15T00:42:08;21.15;;;9.25;;
28653;SDS011;24320;56.980;24.336;2023-05-15T00:44:36;15.30;;;9.18;;
28653;SDS011;24320;56.980;24.336;2023-05-15T00:47:05;16.90;;;9.15;;
28653;SDS011;24320;56.980;24.336;2023-05-15T00:49:33;14.65;;;9.32;;
28653;SDS011;24320;56.980;24.336;2023-05-15T00:52:02;15.43;;;9.63;;
28653;SDS011;24320;56.980;24.336;2023-05-15T00:54:30;16.95;;;8.82;;
28653;SDS011;24320;56.980;24.336;2023-05-15T00:56:58;16.10;;;9.77;;
28653;SDS011;24320;56.980;24.336;2023-05-15T00:59:29;15.90;;;9.65;;
28653;SDS011;24320;56.980;24.336;2023-05-15T01:01:57;15.23;;;9.82;;
28653;SDS011;24320;56.980;24.336;2023-05-15T01:04:24;15.98;;;9.73;;
28653;SDS011;24320;56.980;24.336;2023-05-15T01:06:51;15.55;;;9.35;;
28653;SDS011;24320;56.980;24.336;2023-05-15T01:09:19;19.95;;;10.10;;
28653;SDS011;24320;56.980;24.336;2023-05-15T01:11:49;15.45;;;9.45;;
28653;SDS011;24320;56.980;24.336;2023-05-15T01:14:19;15.25;;;9.43;;
28653;SDS011;24320;56.980;24.336;2023-05-15T01:16:46;17.52;;;9.75;;
28653;SDS011;24320;56.980;24.336;2023-05-15T01:19:13;18.02;;;9.82;;
28653;SDS011;24320;56.980;24.336;2023-05-15T01:27:28;18.58;;;9.98;;
28653;SDS011;24320;56.980;24.336;2023-05-15T01:30:25;16.52;;;10.13;;
28653;SDS011;24320;56.980;24.336;2023-05-15T01:35:43;17.48;;;9.55;;
28653;SDS011;24320;56.980;24.336;2023-05-15T01:40:47;17.90;;;9.35;;
28653;SDS011;24320;56.980;24.336;2023-05-15T01:43:17;20.42;;;10.18;;
28653;SDS011;24320;56.980;24.336;2023-05-15T01:45:48;16.85;;;9.95;;
28653;SDS011;24320;56.980;24.336;2023-05-15T01:48:15;18.05;;;10.18;;
28653;SDS011;24320;56.980;24.336;2023-05-15T01:50:44;16.15;;;9.70;;
28653;SDS011;24320;56.980;24.336;2023-05-15T01:53:12;21.65;;;10.00;;
28653;SDS011;24320;56.980;24.336;2023-05-15T01:55:40;17.98;;;9.82;;
28653;SDS011;24320;56.980;24.336;2023-05-15T01:58:07;19.52;;;10.30;;
28653;SDS011;24320;56.980;24.336;2023-05-15T02:00:35;20.92;;;9.75;;
28653;SDS011;24320;56.980;24.336;2023-05-15T02:03:04;25.27;;;9.75;;
28653;SDS011;24320;56.980;24.336;2023-05-15T02:05:32;16.88;;;10.68;;
28653;SDS011;24320;56.980;24.336;2023-05-15T02:08:01;17.17;;;10.45;;
28653;SDS011;24320;56.980;24.336;2023-05-15T02:10:30;17.17;;;9.80;;
28653;SDS011;24320;56.980;24.336;2023-05-15T02:12:58;19.73;;;10.65;;
28653;SDS011;24320;56.980;24.336;2023-05-15T02:15:27;18.95;;;10.65;;
28653;SDS011;24320;56.980;24.336;2023-05-15T02:17:55;15.75;;;10.32;;
28653;SDS011;24320;56.980;24.336;2023-05-15T02:20:22;16.38;;;10.13;;
28653;SDS011;24320;56.980;24.336;2023-05-15T02:22:49;17.48;;;9.60;;
28653;SDS011;24320;56.980;24.336;2023-05-15T02:25:16;20.60;;;10.32;;
28653;SDS011;24320;56.980;24.336;2023-05-15T02:27:54;19.20;;;10.98;;
28653;SDS011;24320;56.980;24.336;2023-05-15T02:30:40;16.38;;;10.32;;
28653;SDS011;24320;56.980;24.336;2023-05-15T02:36:07;17.70;;;10.70;;
28653;SDS011;24320;56.980;24.336;2023-05-15T02:38:50;20.50;;;10.27;;
28653;SDS011;24320;56.980;24.336;2023-05-15T02:41:18;19.58;;;11.43;;
28653;SDS011;24320;56.980;24.336;2023-05-15T02:43:47;17.30;;;11.00;;
28653;SDS011;24320;56.980;24.336;2023-05-15T02:46:17;20.30;;;11.82;;
28653;SDS011;24320;56.980;24.336;2023-05-15T02:48:45;17.25;;;11.23;;
28653;SDS011;24320;56.980;24.336;2023-05-15T02:51:13;21.27;;;11.38;;
28653;SDS011;24320;56.980;24.336;2023-05-15T02:53:41;22.98;;;12.73;;
28653;SDS011;24320;56.980;24.336;2023-05-15T02:56:08;26.15;;;12.98;;
28653;SDS011;24320;56.980;24.336;2023-05-15T02:58:35;21.25;;;11.80;;
28653;SDS011;24320;56.980;24.336;2023-05-15T03:01:04;16.92;;;9.02;;
28653;SDS011;24320;56.980;24.336;2023-05-15T03:03:31;11.13;;;8.63;;
28653;SDS011;24320;56.980;24.336;2023-05-15T03:05:58;18.15;;;7.95;;
28653;SDS011;24320;56.980;24.336;2023-05-15T03:08:26;10.50;;;7.35;;
28653;SDS011;24320;56.980;24.336;2023-05-15T03:10:53;15.52;;;8.23;;
28653;SDS011;24320;56.980;24.336;2023-05-15T03:13:20;13.80;;;8.20;;
28653;SDS011;24320;56.980;24.336;2023-05-15T03:15:47;91.38;;;13.85;;
28653;SDS011;24320;56.980;24.336;2023-05-15T03:18:14;49.47;;;11.68;;
28653;SDS011;24320;56.980;24.336;2023-05-15T03:20:45;26.48;;;9.23;;
28653;SDS011;24320;56.980;24.336;2023-05-15T03:23:13;10.88;;;8.55;;
28653;SDS011;24320;56.980;24.336;2023-05-15T03:25:40;13.55;;;8.10;;
28653;SDS011;24320;56.980;24.336;2023-05-15T03:28:07;12.85;;;8.55;;
28653;SDS011;24320;56.980;24.336;2023-05-15T03:30:34;13.02;;;8.57;;
28653;SDS011;24320;56.980;24.336;2023-05-15T03:33:01;12.85;;;8.20;;
28653;SDS011;24320;56.980;24.336;2023-05-15T03:35:29;9.85;;;8.07;;
28653;SDS011;24320;56.980;24.336;2023-05-15T03:37:57;14.23;;;8.32;;
28653;SDS011;24320;56.980;24.336;2023-05-15T03:40:24;11.88;;;7.93;;
28653;SDS011;24320;56.980;24.336;2023-05-15T03:42:51;10.38;;;7.93;;
28653;SDS011;24320;56.980;24.336;2023-05-15T03:45:19;12.55;;;7.97;;
28653;SDS011;24320;56.980;24.336;2023-05-15T03:47:46;10.05;;;8.10;;
28653;SDS011;24320;56.980;24.336;2023-05-15T03:50:14;12.30;;;8.35;;
28653;SDS011;24320;56.980;24.336;2023-05-15T03:52:41;16.98;;;8.45;;
28653;SDS011;24320;56.980;24.336;2023-05-15T03:55:08;14.18;;;7.82;;
28653;SDS011;24320;56.980;24.336;2023-05-15T03:57:35;18.63;;;9.25;;
28653;SDS011;24320;56.980;24.336;2023-05-15T04:00:02;12.40;;;8.10;;
28653;SDS011;24320;56.980;24.336;2023-05-15T04:02:36;16.95;;;9.50;;
28653;SDS011;24320;56.980;24.336;2023-05-15T04:05:11;12.07;;;8.05;;
28653;SDS011;24320;56.980;24.336;2023-05-15T04:07:39;9.65;;;7.18;;
28653;SDS011;24320;56.980;24.336;2023-05-15T04:10:06;15.82;;;7.70;;
28653;SDS011;24320;56.980;24.336;2023-05-15T04:12:34;12.98;;;7.13;;
28653;SDS011;24320;56.980;24.336;2023-05-15T04:17:52;11.32;;;7.85;;
28653;SDS011;24320;56.980;24.336;2023-05-15T04:20:20;12.07;;;7.28;;
28653;SDS011;24320;56.980;24.336;2023-05-15T04:22:49;12.05;;;7.55;;
28653;SDS011;24320;56.980;24.336;2023-05-15T04:25:17;12.45;;;7.85;;
28653;SDS011;24320;56.980;24.336;2023-05-15T04:27:45;30.20;;;8.15;;
28653;SDS011;24320;56.980;24.336;2023-05-15T04:30:13;12.38;;;6.78;;
28653;SDS011;24320;56.980;24.336;2023-05-15T04:32:40;11.20;;;7.18;;
28653;SDS011;24320;56.980;24.336;2023-05-15T04:35:07;10.55;;;6.90;;
28653;SDS011;24320;56.980;24.336;2023-05-15T04:37:37;12.05;;;6.97;;
28653;SDS011;24320;56.980;24.336;2023-05-15T04:40:05;12.13;;;7.10;;
28653;SDS011;24320;56.980;24.336;2023-05-15T04:42:34;15.23;;;7.45;;
28653;SDS011;24320;56.980;24.336;2023-05-15T04:45:04;14.57;;;6.90;;
28653;SDS011;24320;56.980;24.336;2023-05-15T04:47:31;9.52;;;6.78;;
28653;SDS011;24320;56.980;24.336;2023-05-15T04:49:58;12.80;;;6.53;;
28653;SDS011;24320;56.980;24.336;2023-05-15T04:52:25;10.85;;;6.75;;
28653;SDS011;24320;56.980;24.336;2023-05-15T04:54:52;12.65;;;7.30;;
28653;SDS011;24320;56.980;24.336;2023-05-15T04:57:21;14.38;;;7.07;;
28653;SDS011;24320;56.980;24.336;2023-05-15T04:59:48;15.88;;;7.05;;
28653;SDS011;24320;56.980;24.336;2023-05-15T05:02:18;73.57;;;11.45;;
28653;SDS011;24320;56.980;24.336;2023-05-15T05:04:47;11.27;;;6.60;;
28653;SDS011;24320;56.980;24.336;2023-05-15T05:07:15;18.58;;;7.03;;
28653;SDS011;24320;56.980;24.336;2023-05-15T05:09:42;25.98;;;7.15;;
28653;SDS011;24320;56.980;24.336;2023-05-15T05:12:09;15.15;;;5.97;;
28653;SDS011;24320;56.980;24.336;2023-05-15T05:14:37;10.88;;;6.55;;
28653;SDS011;24320;56.980;24.336;2023-05-15T05:17:05;11.98;;;6.35;;
28653;SDS011;24320;56.980;24.336;2023-05-15T05:19:33;15.23;;;6.25;;
28653;SDS011;24320;56.980;24.336;2023-05-15T05:22:00;9.77;;;6.18;;
28653;SDS011;24320;56.980;24.336;2023-05-15T05:24:30;16.48;;;5.95;;
28653;SDS011;24320;56.980;24.336;2023-05-15T05:26:57;14.52;;;6.05;;
28653;SDS011;24320;56.980;24.336;2023-05-15T05:29:25;12.98;;;5.90;;
28653;SDS011;24320;56.980;24.336;2023-05-15T05:31:52;22.63;;;6.38;;
28653;SDS011;24320;56.980;24.336;2023-05-15T05:34:19;14.85;;;5.75;;
28653;SDS011;24320;56.980;24.336;2023-05-15T05:36:47;12.73;;;6.07;;
28653;SDS011;24320;56.980;24.336;2023-05-15T05:39:14;19.60;;;5.97;;
28653;SDS011;24320;56.980;24.336;2023-05-15T05:41:42;10.20;;;5.75;;
28653;SDS011;24320;56.980;24.336;2023-05-15T05:44:10;11.00;;;5.28;;
28653;SDS011;24320;56.980;24.336;2023-05-15T05:46:37;15.80;;;5.90;;
28653;SDS011;24320;56.980;24.336;2023-05-15T05:49:04;9.15;;;4.93;;
28653;SDS011;24320;56.980;24.336;2023-05-15T05:51:31;14.70;;;5.38;;
28653;SDS011;24320;56.980;24.336;2023-05-15T05:53:59;16.08;;;5.10;;
28653;SDS011;24320;56.980;24.336;2023-05-15T05:56:26;12.40;;;5.18;;
28653;SDS011;24320;56.980;24.336;2023-05-15T05:58:54;11.20;;;5.40;;
28653;SDS011;24320;56.980;24.336;2023-05-15T06:01:21;13.35;;;4.85;;
28653;SDS011;24320;56.980;24.336;2023-05-15T06:03:48;28.02;;;5.80;;
28653;SDS011;24320;56.980;24.336;2023-05-15T06:06:16;13.05;;;4.85;;
28653;SDS011;24320;56.980;24.336;2023-05-15T06:08:43;16.25;;;5.10;;
28653;SDS011;24320;56.980;24.336;2023-05-15T06:11:10;14.95;;;5.90;;
28653;SDS011;24320;56.980;24.336;2023-05-15T06:13:37;19.77;;;5.13;;
28653;SDS011;24320;56.980;24.336;2023-05-15T06:16:04;10.57;;;4.85;;
28653;SDS011;24320;56.980;24.336;2023-05-15T06:18:31;13.93;;;4.47;;
28653;SDS011;24320;56.980;24.336;2023-05-15T06:20:58;10.77;;;4.43;;
28653;SDS011;24320;56.980;24.336;2023-05-15T06:23:26;11.73;;;4.25;;
28653;SDS011;24320;56.980;24.336;2023-05-15T06:25:53;20.25;;;4.18;;
28653;SDS011;24320;56.980;24.336;2023-05-15T06:28:20;11.10;;;4.55;;
28653;SDS011;24320;56.980;24.336;2023-05-15T06:30:47;9.88;;;4.45;;
28653;SDS011;24320;56.980;24.336;2023-05-15T06:33:14;13.88;;;3.97;;
28653;SDS011;24320;56.980;24.336;2023-05-15T06:35:41;11.05;;;3.58;;
28653;SDS011;24320;56.980;24.336;2023-05-15T06:38:08;9.07;;;3.85;;
28653;SDS011;24320;56.980;24.336;2023-05-15T06:40:35;10.40;;;4.30;;
28653;SDS011;24320;56.980;24.336;2023-05-15T06:43:02;21.98;;;4.57;;
28653;SDS011;24320;56.980;24.336;2023-05-15T06:45:29;6.80;;;3.63;;
28653;SDS011;24320;56.980;24.336;2023-05-15T06:47:56;7.72;;;3.28;;
28653;SDS011;24320;56.980;24.336;2023-05-15T06:50:27;4.70;;;3.25;;
28653;SDS011;24320;56.980;24.336;2023-05-15T06:52:54;12.13;;;4.07;;
28653;SDS011;24320;56.980;24.336;2023-05-15T06:55:22;5.28;;;3.22;;
28653;SDS011;24320;56.980;24.336;2023-05-15T06:57:49;74.40;;;9.18;;
28653;SDS011;24320;56.980;24.336;2023-05-15T07:00:16;8.27;;;3.15;;
28653;SDS011;24320;56.980;24.336;2023-05-15T07:02:43;6.47;;;3.10;;
28653;SDS011;24320;56.980;24.336;2023-05-15T07:05:10;8.40;;;3.28;;
28653;SDS011;24320;56.980;24.336;2023-05-15T07:07:40;11.70;;;3.92;;
28653;SDS011;24320;56.980;24.336;2023-05-15T07:10:07;5.57;;;2.95;;
28653;SDS011;24320;56.980;24.336;2023-05-15T07:12:34;11.38;;;3.53;;
28653;SDS011;24320;56.980;24.336;2023-05-15T07:15:02;8.70;;;3.90;;
28653;SDS011;24320;56.980;24.336;2023-05-15T07:17:30;14.40;;;3.30;;
28653;SDS011;24320;56.980;24.336;2023-05-15T07:19:58;7.13;;;3.43;;
28653;SDS011;24320;56.980;24.336;2023-05-15T07:22:26;8.77;;;3.13;;
28653;SDS011;24320;56.980;24.336;2023-05-15T07:24:54;4.22;;;3.05;;
28653;SDS011;24320;56.980;24.336;2023-05-15T07:30:00;4.75;;;2.97;;
28653;SDS011;24320;56.980;24.336;2023-05-15T07:32:29;5.70;;;3.35;;
28653;SDS011;24320;56.980;24.336;2023-05-15T07:34:56;28.80;;;4.47;;
28653;SDS011;24320;56.980;24.336;2023-05-15T07:37:23;7.60;;;3.17;;
28653;SDS011;24320;56.980;24.336;2023-05-15T07:39:50;4.38;;;2.70;;
28653;SDS011;24320;56.980;24.336;2023-05-15T07:42:18;6.40;;;2.80;;
28653;SDS011;24320;56.980;24.336;2023-05-15T07:44:45;35.47;;;4.82;;
28653;SDS011;24320;56.980;24.336;2023-05-15T07:47:14;5.60;;;2.67;;
28653;SDS011;24320;56.980;24.336;2023-05-15T07:49:42;4.15;;;2.70;;
28653;SDS011;24320;56.980;24.336;2023-05-15T07:52:09;5.10;;;3.13;;
28653;SDS011;24320;56.980;24.336;2023-05-15T07:54:36;11.98;;;3.30;;
28653;SDS011;24320;56.980;24.336;2023-05-15T07:57:04;7.95;;;2.88;;
28653;SDS011;24320;56.980;24.336;2023-05-15T07:59:31;3.95;;;2.67;;
28653;SDS011;24320;56.980;24.336;2023-05-15T08:01:58;3.65;;;2.65;;
28653;SDS011;24320;56.980;24.336;2023-05-15T08:04:25;6.63;;;3.28;;
28653;SDS011;24320;56.980;24.336;2023-05-15T08:06:53;6.53;;;3.05;;
28653;SDS011;24320;56.980;24.336;2023-05-15T08:09:20;12.60;;;2.85;;
28653;SDS011;24320;56.980;24.336;2023-05-15T08:11:47;11.48;;;3.25;;
28653;SDS011;24320;56.980;24.336;2023-05-15T08:14:13;22.38;;;4.75;;
28653;SDS011;24320;56.980;24.336;2023-05-15T08:16:40;5.03;;;2.30;;
28653;SDS011;24320;56.980;24.336;2023-05-15T08:19:07;8.88;;;2.70;;
28653;SDS011;24320;56.980;24.336;2023-05-15T08:21:35;5.28;;;2.78;;
28653;SDS011;24320;56.980;24.336;2023-05-15T08:24:03;8.48;;;2.70;;
28653;SDS011;24320;56.980;24.336;2023-05-15T08:26:30;4.93;;;2.72;;
28653;SDS011;24320;56.980;24.336;2023-05-15T08:28:58;3.05;;;2.25;;
28653;SDS011;24320;56.980;24.336;2023-05-15T08:31:25;9.98;;;3.20;;
28653;SDS011;24320;56.980;24.336;2023-05-15T08:33:52;5.72;;;2.83;;
28653;SDS011;24320;56.980;24.336;2023-05-15T08:36:19;3.90;;;2.28;;
28653;SDS011;24320;56.980;24.336;2023-05-15T08:38:47;5.10;;;2.75;;
28653;SDS011;24320;56.980;24.336;2023-05-15T08:41:17;4.50;;;2.60;;
28653;SDS011;24320;56.980;24.336;2023-05-15T08:44:05;3.33;;;2.63;;
28653;SDS011;24320;56.980;24.336;2023-05-15T08:46:36;3.70;;;2.63;;
28653;SDS011;24320;56.980;24.336;2023-05-15T08:49:07;3.92;;;2.80;;
28653;SDS011;24320;56.980;24.336;2023-05-15T08:51:56;3.97;;;2.53;;
28653;SDS011;24320;56.980;24.336;2023-05-15T08:54:23;6.60;;;2.40;;
28653;SDS011;24320;56.980;24.336;2023-05-15T08:56:51;3.63;;;2.42;;
28653;SDS011;24320;56.980;24.336;2023-05-15T08:59:18;3.80;;;2.58;;
28653;SDS011;24320;56.980;24.336;2023-05-15T09:01:45;9.13;;;2.75;;
28653;SDS011;24320;56.980;24.336;2023-05-15T09:04:13;15.57;;;3.58;;
28653;SDS011;24320;56.980;24.336;2023-05-15T09:06:40;6.70;;;2.63;;
28653;SDS011;24320;56.980;24.336;2023-05-15T09:09:08;94.03;;;8.68;;
28653;SDS011;24320;56.980;24.336;2023-05-15T09:11:42;9.00;;;3.05;;
28653;SDS011;24320;56.980;24.336;2023-05-15T09:14:10;5.10;;;2.45;;
28653;SDS011;24320;56.980;24.336;2023-05-15T09:16:37;9.05;;;2.60;;
28653;SDS011;24320;56.980;24.336;2023-05-15T09:19:05;11.93;;;2.95;;
28653;SDS011;24320;56.980;24.336;2023-05-15T09:21:32;13.43;;;3.13;;
28653;SDS011;24320;56.980;24.336;2023-05-15T09:24:14;5.07;;;2.65;;
28653;SDS011;24320;56.980;24.336;2023-05-15T09:27:06;6.97;;;2.50;;
28653;SDS011;24320;56.980;24.336;2023-05-15T09:29:34;6.53;;;2.40;;
28653;SDS011;24320;56.980;24.336;2023-05-15T09:34:32;5.95;;;2.33;;
28653;SDS011;24320;56.980;24.336;2023-05-15T09:37:01;9.90;;;2.60;;
28653;SDS011;24320;56.980;24.336;2023-05-15T09:39:29;5.20;;;2.78;;
28653;SDS011;24320;56.980;24.336;2023-05-15T09:42:06;6.25;;;2.80;;
28653;SDS011;24320;56.980;24.336;2023-05-15T09:44:39;3.95;;;2.17;;
28653;SDS011;24320;56.980;24.336;2023-05-15T09:47:07;5.72;;;2.42;;
28653;SDS011;24320;56.980;24.336;2023-05-15T09:49:35;6.10;;;2.63;;
28653;SDS011;24320;56.980;24.336;2023-05-15T09:52:02;8.82;;;2.50;;
28653;SDS011;24320;56.980;24.336;2023-05-15T09:54:34;4.90;;;2.70;;
28653;SDS011;24320;56.980;24.336;2023-05-15T09:57:09;8.73;;;2.70;;
28653;SDS011;24320;56.980;24.336;2023-05-15T09:59:46;8.18;;;2.38;;
28653;SDS011;24320;56.980;24.336;2023-05-15T10:02:24;12.90;;;2.90;;
28653;SDS011;24320;56.980;24.336;2023-05-15T10:05:00;2.63;;;2.20;;
28653;SDS011;24320;56.980;24.336;2023-05-15T10:07:32;4.07;;;2.47;;
28653;SDS011;24320;56.980;24.336;2023-05-15T10:10:00;7.05;;;2.50;;
28653;SDS011;24320;56.980;24.336;2023-05-15T10:12:29;3.95;;;2.35;;
28653;SDS011;24320;56.980;24.336;2023-05-15T10:14:58;25.92;;;3.65;;
28653;SDS011;24320;56.980;24.336;2023-05-15T10:17:26;5.10;;;2.35;;
28653;SDS011;24320;56.980;24.336;2023-05-15T10:19:57;4.00;;;2.38;;
28653;SDS011;24320;56.980;24.336;2023-05-15T10:22:28;6.53;;;2.38;;
28653;SDS011;24320;56.980;24.336;2023-05-15T10:27:53;2.97;;;2.35;;
28653;SDS011;24320;56.980;24.336;2023-05-15T10:30:21;3.50;;;2.75;;
28653;SDS011;24320;56.980;24.336;2023-05-15T10:32:49;5.47;;;2.33;;
28653;SDS011;24320;56.980;24.336;2023-05-15T10:35:16;5.30;;;2.35;;
28653;SDS011;24320;56.980;24.336;2023-05-15T10:37:44;11.48;;;2.30;;
28653;SDS011;24320;56.980;24.336;2023-05-15T10:40:14;13.73;;;3.03;;
28653;SDS011;24320;56.980;24.336;2023-05-15T10:42:43;6.65;;;2.30;;
28653;SDS011;24320;56.980;24.336;2023-05-15T10:45:11;5.50;;;2.10;;
28653;SDS011;24320;56.980;24.336;2023-05-15T10:47:39;4.63;;;2.20;;
28653;SDS011;24320;56.980;24.336;2023-05-15T10:50:08;5.15;;;2.30;;
28653;SDS011;24320;56.980;24.336;2023-05-15T10:52:37;5.45;;;2.22;;
28653;SDS011;24320;56.980;24.336;2023-05-15T10:55:05;3.15;;;2.20;;
28653;SDS011;24320;56.980;24.336;2023-05-15T11:00:23;4.68;;;2.00;;
28653;SDS011;24320;56.980;24.336;2023-05-15T11:02:52;2.25;;;2.05;;
28653;SDS011;24320;56.980;24.336;2023-05-15T11:05:22;13.43;;;2.70;;
28653;SDS011;24320;56.980;24.336;2023-05-15T11:08:32;11.32;;;2.20;;
28653;SDS011;24320;56.980;24.336;2023-05-15T11:10:40;2.80;;;1.90;;
28653;SDS011;24320;56.980;24.336;2023-05-15T11:13:07;73.15;;;7.55;;
28653;SDS011;24320;56.980;24.336;2023-05-15T11:15:43;8.15;;;2.20;;
28653;SDS011;24320;56.980;24.336;2023-05-15T11:18:11;5.03;;;2.80;;
28653;SDS011;24320;56.980;24.336;2023-05-15T11:20:40;6.63;;;2.30;;
28653;SDS011;24320;56.980;24.336;2023-05-15T11:23:10;9.23;;;1.98;;
28653;SDS011;24320;56.980;24.336;2023-05-15T11:25:37;3.38;;;2.00;;
28653;SDS011;24320;56.980;24.336;2023-05-15T11:28:05;3.38;;;1.90;;
28653;SDS011;24320;56.980;24.336;2023-05-15T11:30:33;5.03;;;2.20;;
28653;SDS011;24320;56.980;24.336;2023-05-15T11:33:11;5.93;;;1.92;;
28653;SDS011;24320;56.980;24.336;2023-05-15T11:35:39;6.72;;;2.03;;
28653;SDS011;24320;56.980;24.336;2023-05-15T11:38:17;6.07;;;2.13;;
28653;SDS011;24320;56.980;24.336;2023-05-15T11:40:50;4.82;;;2.10;;
28653;SDS011;24320;56.980;24.336;2023-05-15T11:43:24;6.78;;;2.22;;
28653;SDS011;24320;56.980;24.336;2023-05-15T11:45:56;9.25;;;2.47;;
28653;SDS011;24320;56.980;24.336;2023-05-15T11:48:31;5.28;;;2.28;;
28653;SDS011;24320;56.980;24.336;2023-05-15T11:51:00;3.33;;;1.80;;
28653;SDS011;24320;56.980;24.336;2023-05-15T11:53:28;4.00;;;2.20;;
28653;SDS011;24320;56.980;24.336;2023-05-15T11:55:55;6.20;;;1.90;;
28653;SDS011;24320;56.980;24.336;2023-05-15T11:58:23;6.10;;;2.40;;
28653;SDS011;24320;56.980;24.336;2023-05-15T12:00:52;5.82;;;1.92;;
28653;SDS011;24320;56.980;24.336;2023-05-15T12:03:23;182.07;;;11.55;;
28653;SDS011;24320;56.980;24.336;2023-05-15T12:06:05;6.50;;;2.10;;
28653;SDS011;24320;56.980;24.336;2023-05-15T12:08:35;7.38;;;2.08;;
28653;SDS011;24320;56.980;24.336;2023-05-15T12:11:07;3.92;;;1.95;;
28653;SDS011;24320;56.980;24.336;2023-05-15T12:13:34;3.22;;;1.90;;
28653;SDS011;24320;56.980;24.336;2023-05-15T12:16:02;10.32;;;2.17;;
28653;SDS011;24320;56.980;24.336;2023-05-15T12:18:30;3.58;;;1.90;;
28653;SDS011;24320;56.980;24.336;2023-05-15T12:20:58;2.75;;;1.52;;
28653;SDS011;24320;56.980;24.336;2023-05-15T12:23:26;2.60;;;1.73;;
28653;SDS011;24320;56.980;24.336;2023-05-15T12:25:55;7.85;;;2.50;;
28653;SDS011;24320;56.980;24.336;2023-05-15T12:28:26;7.25;;;1.85;;
28653;SDS011;24320;56.980;24.336;2023-05-15T12:30:54;2.88;;;1.30;;
28653;SDS011;24320;56.980;24.336;2023-05-15T12:33:23;2.05;;;1.48;;
28653;SDS011;24320;56.980;24.336;2023-05-15T12:35:54;3.88;;;1.70;;
28653;SDS011;24320;56.980;24.336;2023-05-15T12:38:26;4.00;;;1.70;;
28653;SDS011;24320;56.980;24.336;2023-05-15T12:40:54;1.75;;;1.40;;
28653;SDS011;24320;56.980;24.336;2023-05-15T12:43:23;2.28;;;1.40;;
28653;SDS011;24320;56.980;24.336;2023-05-15T12:45:51;4.68;;;1.90;;
28653;SDS011;24320;56.980;24.336;2023-05-15T12:48:19;1.90;;;1.45;;
28653;SDS011;24320;56.980;24.336;2023-05-15T12:50:47;6.78;;;1.58;;
28653;SDS011;24320;56.980;24.336;2023-05-15T12:53:15;1.98;;;1.40;;
28653;SDS011;24320;56.980;24.336;2023-05-15T12:55:43;2.00;;;1.33;;
28653;SDS011;24320;56.980;24.336;2023-05-15T12:58:12;6.90;;;2.00;;
28653;SDS011;24320;56.980;24.336;2023-05-15T13:00:44;3.25;;;1.52;;
28653;SDS011;24320;56.980;24.336;2023-05-15T13:03:18;4.00;;;1.90;;
28653;SDS011;24320;56.980;24.336;2023-05-15T13:05:47;3.17;;;1.80;;
28653;SDS011;24320;56.980;24.336;2023-05-15T13:08:16;3.30;;;2.00;;
28653;SDS011;24320;56.980;24.336;2023-05-15T13:10:44;42.13;;;3.70;;
28653;SDS011;24320;56.980;24.336;2023-05-15T13:13:12;28.67;;;2.78;;
28653;SDS011;24320;56.980;24.336;2023-05-15T13:18:12;6.30;;;2.10;;
28653;SDS011;24320;56.980;24.336;2023-05-15T13:23:16;4.53;;;2.10;;
28653;SDS011;24320;56.980;24.336;2023-05-15T13:25:45;3.15;;;2.30;;
28653;SDS011;24320;56.980;24.336;2023-05-15T13:28:12;6.78;;;2.70;;
28653;SDS011;24320;56.980;24.336;2023-05-15T13:30:39;3.53;;;2.20;;
28653;SDS011;24320;56.980;24.336;2023-05-15T13:33:07;6.95;;;2.60;;
28653;SDS011;24320;56.980;24.336;2023-05-15T13:35:36;13.80;;;3.15;;
28653;SDS011;24320;56.980;24.336;2023-05-15T13:38:04;7.38;;;2.30;;
28653;SDS011;24320;56.980;24.336;2023-05-15T13:40:32;5.57;;;2.60;;
28653;SDS011;24320;56.980;24.336;2023-05-15T13:43:02;5.28;;;2.47;;
28653;SDS011;24320;56.980;24.336;2023-05-15T13:45:32;11.15;;;2.63;;
28653;SDS011;24320;56.980;24.336;2023-05-15T13:47:59;9.10;;;2.53;;
28653;SDS011;24320;56.980;24.336;2023-05-15T13:50:26;2.78;;;2.13;;
28653;SDS011;24320;56.980;24.336;2023-05-15T13:52:53;7.82;;;2.20;;
28653;SDS011;24320;56.980;24.336;2023-05-15T13:55:20;13.85;;;3.30;;
28653;SDS011;24320;56.980;24.336;2023-05-15T13:57:48;3.70;;;2.33;;
28653;SDS011;24320;56.980;24.336;2023-05-15T14:00:16;12.48;;;2.67;;
28653;SDS011;24320;56.980;24.336;2023-05-15T14:02:45;5.85;;;2.30;;
28653;SDS011;24320;56.980;24.336;2023-05-15T14:05:13;15.63;;;3.25;;
28653;SDS011;24320;56.980;24.336;2023-05-15T14:07:40;4.18;;;1.95;;
28653;SDS011;24320;56.980;24.336;2023-05-15T14:10:09;14.00;;;2.80;;
28653;SDS011;24320;56.980;24.336;2023-05-15T14:12:36;9.52;;;3.00;;
28653;SDS011;24320;56.980;24.336;2023-05-15T14:15:04;5.50;;;2.55;;
28653;SDS011;24320;56.980;24.336;2023-05-15T14:17:31;2.97;;;2.30;;
28653;SDS011;24320;56.980;24.336;2023-05-15T14:19:58;7.28;;;2.58;;
28653;SDS011;24320;56.980;24.336;2023-05-15T14:22:25;10.23;;;2.65;;
28653;SDS011;24320;56.980;24.336;2023-05-15T14:24:52;3.92;;;2.03;;
28653;SDS011;24320;56.980;24.336;2023-05-15T14:27:19;47.05;;;5.20;;
28653;SDS011;24320;56.980;24.336;2023-05-15T14:29:46;27.08;;;4.00;;
28653;SDS011;24320;56.980;24.336;2023-05-15T14:32:14;8.50;;;2.47;;
28653;SDS011;24320;56.980;24.336;2023-05-15T14:34:42;10.55;;;2.70;;
28653;SDS011;24320;56.980;24.336;2023-05-15T14:37:10;5.43;;;2.40;;
28653;SDS011;24320;56.980;24.336;2023-05-15T14:39:37;7.80;;;2.53;;
28653;SDS011;24320;56.980;24.336;2023-05-15T14:42:04;2.25;;;2.05;;
28653;SDS011;24320;56.980;24.336;2023-05-15T14:44:32;6.70;;;2.92;;
28653;SDS011;24320;56.980;24.336;2023-05-15T14:47:08;5.57;;;2.53;;
28653;SDS011;24320;56.980;24.336;2023-05-15T14:49:38;3.00;;;2.40;;
28653;SDS011;24320;56.980;24.336;2023-05-15T14:52:06;9.20;;;2.85;;
28653;SDS011;24320;56.980;24.336;2023-05-15T14:54:35;8.13;;;2.88;;
28653;SDS011;24320;56.980;24.336;2023-05-15T14:57:02;4.50;;;2.63;;
28653;SDS011;24320;56.980;24.336;2023-05-15T14:59:29;6.85;;;2.47;;
28653;SDS011;24320;56.980;24.336;2023-05-15T15:01:56;10.02;;;2.50;;
28653;SDS011;24320;56.980;24.336;2023-05-15T15:04:23;46.45;;;5.18;;
28653;SDS011;24320;56.980;24.336;2023-05-15T15:06:52;3.45;;;2.55;;
28653;SDS011;24320;56.980;24.336;2023-05-15T15:09:22;4.80;;;2.67;;